Ceresco, Michigan
Current Conditions -  °F | °C
As of 10:53 AM on Thursday 27 Nov 2014 (Local Time) from KRMY Reporting Station
Light Snow Light Snow  
Wind Chill: 21°   Ceiling: 1600
Heat Index: 29°   Visibility: 5mi
Dew Point: 25°   Wind: 8mph
Humidity: 85%   Direction: 250°WSW
Pressure: 30.19"   Gusts: NA
Location:  42.27°N, 85.06°W
Report Text: KRMY 271553Z AUTO 25007KT 5SM -SN BKN016 OVC037 M02/M04 A3019 RMK AO2 T10161039
Loading
Personal Weather Stations






























Interactive Weather Map New forecast layout! Learn more

10-Day Weather Forecast

Advertisements
Track Severe Weather on mobile